KCMX Airport (Houghton County Memorial) Information

FAA: CMX - ICAO: KCMX

KCMX Airport Location

State Michigan
County Houghton
City Hancock
KCMX Airport is 4 miles northeast of Hancock, MI.
Latitude 47-10-06.3020N
Longitude 088-29-20.6190W
Elevation 1,095ft

KCMX Airport METARs

METAR KCMX 060707Z AUTO 08004KT 10SM BKN020 15/12 A3005 RMK AO2 T01500122
Altimeter 30.05"
Temperature 15.0°C (59.0°F)
Wind 80° at 4KT
Clouds broken at 2,000ft
Visibility 10.0mi
Time observed: 2022-07-06T07:07:00Z

KCMX Airport Details

Status Operational
Activation N/A
Ownership Public
Usage Public
Chart GREEN BAY
ATC on-site No
Beacon schedule sunset-sunrise
Beacon color clear green

KCMX Airport Contacts

Owner HOUGHTON COUNTY
Owner address 23810 AIRPARK BLVD STE 113, CALUMET, MI 49913-9233
Owner phone 906-482-3970
Manager THOMAS FOCHTMAN
Manager address 200 JEFFERSON AVE SE, GRAND RAPIDS, MI 49503-4502
Manager phone 616-685-6133

KCMX Airport (Houghton County Memorial) Radio Frequencies

KCMX (Airport) Radio Frequencies

UNICOM 122.7
Common traffic advisory frequency (CTAF) 122.7